sensor_id;sensor_type;location;lat;lon;timestamp;pressure;altitude;pressure_sealevel;temperature;humidity
72370;BME280;60343;-32.030;115.880;2023-05-25T00:00:22;103496.84;;;9.08;89.78
72370;BME280;60343;-32.030;115.880;2023-05-25T00:02:58;103506.66;;;9.21;89.20
72370;BME280;60343;-32.030;115.880;2023-05-25T00:05:32;103504.44;;;9.42;88.79
72370;BME280;60343;-32.030;115.880;2023-05-25T00:08:12;103504.78;;;9.64;87.24
72370;BME280;60343;-32.030;115.880;2023-05-25T00:10:47;103509.44;;;9.87;86.10
72370;BME280;60343;-32.030;115.880;2023-05-25T00:13:21;103515.97;;;10.10;85.83
72370;BME280;60343;-32.030;115.880;2023-05-25T00:15:55;103519.78;;;10.33;84.65
72370;BME280;60343;-32.030;115.880;2023-05-25T00:18:30;103519.59;;;10.49;84.36
72370;BME280;60343;-32.030;115.880;2023-05-25T00:21:05;103525.28;;;10.57;82.69
72370;BME280;60343;-32.030;115.880;2023-05-25T00:23:46;103524.75;;;10.77;83.00
72370;BME280;60343;-32.030;115.880;2023-05-25T00:26:21;103529.47;;;10.99;81.09
72370;BME280;60343;-32.030;115.880;2023-05-25T00:28:55;103529.00;;;11.17;80.19
72370;BME280;60343;-32.030;115.880;2023-05-25T00:31:29;103539.69;;;11.43;80.07
72370;BME280;60343;-32.030;115.880;2023-05-25T00:34:04;103541.09;;;11.72;79.54
72370;BME280;60343;-32.030;115.880;2023-05-25T00:36:39;103540.47;;;12.05;79.25
72370;BME280;60343;-32.030;115.880;2023-05-25T00:39:21;103540.94;;;12.34;78.69
72370;BME280;60343;-32.030;115.880;2023-05-25T00:41:56;103543.09;;;12.64;76.47
72370;BME280;60343;-32.030;115.880;2023-05-25T00:44:31;103538.03;;;13.05;74.36
72370;BME280;60343;-32.030;115.880;2023-05-25T00:47:06;103539.09;;;13.69;70.26
72370;BME280;60343;-32.030;115.880;2023-05-25T00:49:41;103530.06;;;14.55;68.60
72370;BME280;60343;-32.030;115.880;2023-05-25T00:52:15;103530.91;;;15.37;64.82
72370;BME280;60343;-32.030;115.880;2023-05-25T00:54:57;103527.78;;;16.10;62.69
72370;BME280;60343;-32.030;115.880;2023-05-25T00:57:33;103534.88;;;16.79;61.02
72370;BME280;60343;-32.030;115.880;2023-05-25T01:00:11;103529.03;;;17.20;58.46
72370;BME280;60343;-32.030;115.880;2023-05-25T01:02:48;103521.66;;;17.67;57.00
72370;BME280;60343;-32.030;115.880;2023-05-25T01:05:26;103524.13;;;17.96;55.14
72370;BME280;60343;-32.030;115.880;2023-05-25T01:08:03;103531.09;;;18.16;54.37
72370;BME280;60343;-32.030;115.880;2023-05-25T01:10:45;103528.09;;;18.19;53.49
72370;BME280;60343;-32.030;115.880;2023-05-25T01:13:21;103527.78;;;18.40;53.22
72370;BME280;60343;-32.030;115.880;2023-05-25T01:15:56;103532.78;;;18.70;52.25
72370;BME280;60343;-32.030;115.880;2023-05-25T01:18:31;103533.97;;;19.02;51.38
72370;BME280;60343;-32.030;115.880;2023-05-25T01:21:18;103525.41;;;19.22;50.54
72370;BME280;60343;-32.030;115.880;2023-05-25T01:23:58;103528.53;;;19.36;49.59
72370;BME280;60343;-32.030;115.880;2023-05-25T01:26:40;103539.31;;;19.53;49.44
72370;BME280;60343;-32.030;115.880;2023-05-25T01:29:17;103528.94;;;19.49;48.29
72370;BME280;60343;-32.030;115.880;2023-05-25T01:31:53;103537.25;;;19.47;48.64
72370;BME280;60343;-32.030;115.880;2023-05-25T01:34:29;103541.56;;;19.32;48.85
72370;BME280;60343;-32.030;115.880;2023-05-25T01:37:10;103549.81;;;19.48;49.06
72370;BME280;60343;-32.030;115.880;2023-05-25T01:39:45;103552.97;;;19.78;47.87
72370;BME280;60343;-32.030;115.880;2023-05-25T01:42:20;103545.91;;;20.01;47.01
72370;BME280;60343;-32.030;115.880;2023-05-25T01:44:55;103545.41;;;20.30;46.64
72370;BME280;60343;-32.030;115.880;2023-05-25T01:47:35;103545.63;;;20.36;45.80
72370;BME280;60343;-32.030;115.880;2023-05-25T01:50:21;103549.19;;;20.61;45.76
72370;BME280;60343;-32.030;115.880;2023-05-25T01:53:03;103545.38;;;20.86;45.52
72370;BME280;60343;-32.030;115.880;2023-05-25T01:55:44;103545.91;;;20.82;43.90
72370;BME280;60343;-32.030;115.880;2023-05-25T01:58:20;103547.59;;;20.91;44.52
72370;BME280;60343;-32.030;115.880;2023-05-25T02:00:55;103546.03;;;20.96;44.43
72370;BME280;60343;-32.030;115.880;2023-05-25T02:03:31;103537.19;;;20.94;43.28
72370;BME280;60343;-32.030;115.880;2023-05-25T02:06:05;103552.88;;;20.84;43.21
72370;BME280;60343;-32.030;115.880;2023-05-25T02:08:46;103543.38;;;20.64;43.74
72370;BME280;60343;-32.030;115.880;2023-05-25T02:11:20;103538.44;;;20.68;43.37
72370;BME280;60343;-32.030;115.880;2023-05-25T02:13:55;103542.53;;;20.55;43.60
72370;BME280;60343;-32.030;115.880;2023-05-25T02:16:29;103542.22;;;20.34;44.42
72370;BME280;60343;-32.030;115.880;2023-05-25T02:19:04;103537.94;;;20.48;44.43
72370;BME280;60343;-32.030;115.880;2023-05-25T02:21:39;103534.50;;;20.78;44.51
72370;BME280;60343;-32.030;115.880;2023-05-25T02:24:19;103532.59;;;20.95;43.50
72370;BME280;60343;-32.030;115.880;2023-05-25T02:26:53;103544.53;;;20.86;43.12
72370;BME280;60343;-32.030;115.880;2023-05-25T02:29:28;103541.44;;;20.89;42.83
72370;BME280;60343;-32.030;115.880;2023-05-25T02:32:02;103543.16;;;20.90;42.77
72370;BME280;60343;-32.030;115.880;2023-05-25T02:34:37;103535.75;;;20.51;43.16
72370;BME280;60343;-32.030;115.880;2023-05-25T02:37:11;103537.28;;;20.46;43.23
72370;BME280;60343;-32.030;115.880;2023-05-25T02:39:51;103537.91;;;19.91;45.27
72370;BME280;60343;-32.030;115.880;2023-05-25T02:42:26;103535.50;;;19.88;44.73
72370;BME280;60343;-32.030;115.880;2023-05-25T02:45:00;103548.69;;;19.59;45.22
72370;BME280;60343;-32.030;115.880;2023-05-25T02:47:37;103537.34;;;19.38;45.20
72370;BME280;60343;-32.030;115.880;2023-05-25T02:50:11;103538.84;;;19.32;46.22
72370;BME280;60343;-32.030;115.880;2023-05-25T02:52:46;103536.00;;;19.34;45.93
72370;BME280;60343;-32.030;115.880;2023-05-25T02:55:26;103525.97;;;19.34;45.98
72370;BME280;60343;-32.030;115.880;2023-05-25T02:58:00;103521.59;;;19.41;45.08
72370;BME280;60343;-32.030;115.880;2023-05-25T03:00:35;103530.28;;;19.11;45.16
72370;BME280;60343;-32.030;115.880;2023-05-25T03:03:09;103518.47;;;19.28;44.87
72370;BME280;60343;-32.030;115.880;2023-05-25T03:05:44;103522.66;;;19.14;44.16
72370;BME280;60343;-32.030;115.880;2023-05-25T03:08:18;103527.13;;;19.23;43.99
72370;BME280;60343;-32.030;115.880;2023-05-25T03:10:59;103508.97;;;19.24;43.74
72370;BME280;60343;-32.030;115.880;2023-05-25T03:13:33;103509.16;;;19.31;44.19
72370;BME280;60343;-32.030;115.880;2023-05-25T03:16:08;103517.47;;;19.37;43.73
72370;BME280;60343;-32.030;115.880;2023-05-25T03:18:42;103512.00;;;19.55;42.07
72370;BME280;60343;-32.030;115.880;2023-05-25T03:21:17;103512.53;;;19.83;41.58
72370;BME280;60343;-32.030;115.880;2023-05-25T03:23:51;103501.34;;;20.18;41.28
72370;BME280;60343;-32.030;115.880;2023-05-25T03:26:32;103508.69;;;20.26;41.28
72370;BME280;60343;-32.030;115.880;2023-05-25T03:29:06;103503.22;;;20.18;41.30
72370;BME280;60343;-32.030;115.880;2023-05-25T03:31:41;103494.69;;;19.64;41.82
72370;BME280;60343;-32.030;115.880;2023-05-25T03:34:15;103490.69;;;19.42;42.50
72370;BME280;60343;-32.030;115.880;2023-05-25T03:36:51;103491.53;;;19.43;42.85
72370;BME280;60343;-32.030;115.880;2023-05-25T03:39:25;103478.59;;;19.37;43.07
72370;BME280;60343;-32.030;115.880;2023-05-25T03:42:06;103475.47;;;19.49;43.44
72370;BME280;60343;-32.030;115.880;2023-05-25T03:44:41;103468.66;;;19.53;43.23
72370;BME280;60343;-32.030;115.880;2023-05-25T03:47:15;103464.94;;;19.62;42.04
72370;BME280;60343;-32.030;115.880;2023-05-25T03:49:50;103456.44;;;19.49;41.67
72370;BME280;60343;-32.030;115.880;2023-05-25T03:52:24;103450.69;;;19.60;41.97
72370;BME280;60343;-32.030;115.880;2023-05-25T03:54:58;103454.06;;;19.62;41.68
72370;BME280;60343;-32.030;115.880;2023-05-25T03:57:39;103447.78;;;19.62;42.65
72370;BME280;60343;-32.030;115.880;2023-05-25T04:00:15;103441.88;;;19.83;40.99
72370;BME280;60343;-32.030;115.880;2023-05-25T04:02:49;103440.84;;;19.84;42.64
72370;BME280;60343;-32.030;115.880;2023-05-25T04:05:25;103423.34;;;19.94;41.11
72370;BME280;60343;-32.030;115.880;2023-05-25T04:07:59;103420.97;;;20.07;42.18
72370;BME280;60343;-32.030;115.880;2023-05-25T04:10:34;103418.56;;;20.29;41.85
72370;BME280;60343;-32.030;115.880;2023-05-25T04:13:15;103427.06;;;20.26;40.77
72370;BME280;60343;-32.030;115.880;2023-05-25T04:15:50;103423.53;;;20.01;41.06
72370;BME280;60343;-32.030;115.880;2023-05-25T04:18:24;103411.13;;;19.90;41.99
72370;BME280;60343;-32.030;115.880;2023-05-25T04:20:59;103413.84;;;19.74;41.17
72370;BME280;60343;-32.030;115.880;2023-05-25T04:23:34;103404.84;;;19.65;41.10
72370;BME280;60343;-32.030;115.880;2023-05-25T04:26:09;103405.34;;;19.61;42.58
72370;BME280;60343;-32.030;115.880;2023-05-25T04:28:50;103410.75;;;19.77;40.81
72370;BME280;60343;-32.030;115.880;2023-05-25T04:31:24;103401.78;;;19.77;40.95
72370;BME280;60343;-32.030;115.880;2023-05-25T04:33:59;103389.19;;;19.92;40.86
72370;BME280;60343;-32.030;115.880;2023-05-25T04:36:36;103379.69;;;19.80;40.81
72370;BME280;60343;-32.030;115.880;2023-05-25T04:39:11;103374.44;;;19.70;41.21
72370;BME280;60343;-32.030;115.880;2023-05-25T04:41:45;103367.09;;;19.87;41.79
72370;BME280;60343;-32.030;115.880;2023-05-25T04:44:26;103364.41;;;19.79;41.34
72370;BME280;60343;-32.030;115.880;2023-05-25T04:47:00;103370.00;;;19.85;41.87
72370;BME280;60343;-32.030;115.880;2023-05-25T04:49:35;103362.31;;;20.13;40.50
72370;BME280;60343;-32.030;115.880;2023-05-25T04:52:09;103352.63;;;20.10;41.28
72370;BME280;60343;-32.030;115.880;2023-05-25T04:54:44;103337.84;;;19.97;40.54
72370;BME280;60343;-32.030;115.880;2023-05-25T04:57:19;103336.19;;;19.96;40.36
72370;BME280;60343;-32.030;115.880;2023-05-25T05:00:00;103333.09;;;19.99;40.42
72370;BME280;60343;-32.030;115.880;2023-05-25T05:02:36;103334.81;;;19.92;40.87
72370;BME280;60343;-32.030;115.880;2023-05-25T05:05:11;103326.66;;;20.00;40.86
72370;BME280;60343;-32.030;115.880;2023-05-25T05:07:45;103319.88;;;19.96;41.22
72370;BME280;60343;-32.030;115.880;2023-05-25T05:10:20;103323.63;;;19.79;40.40
72370;BME280;60343;-32.030;115.880;2023-05-25T05:12:55;103316.16;;;19.81;40.66
72370;BME280;60343;-32.030;115.880;2023-05-25T05:15:35;103320.56;;;19.90;40.95
72370;BME280;60343;-32.030;115.880;2023-05-25T05:18:09;103309.44;;;20.07;40.81
72370;BME280;60343;-32.030;115.880;2023-05-25T05:20:44;103310.31;;;20.16;39.99
72370;BME280;60343;-32.030;115.880;2023-05-25T05:23:18;103311.84;;;20.10;40.57
72370;BME280;60343;-32.030;115.880;2023-05-25T05:25:53;103317.78;;;20.14;39.77
72370;BME280;60343;-32.030;115.880;2023-05-25T05:28:27;103322.72;;;20.10;40.29
72370;BME280;60343;-32.030;115.880;2023-05-25T05:31:08;103320.00;;;20.10;39.71
72370;BME280;60343;-32.030;115.880;2023-05-25T05:33:43;103314.44;;;19.96;40.00
72370;BME280;60343;-32.030;115.880;2023-05-25T05:36:18;103304.91;;;19.84;40.73
72370;BME280;60343;-32.030;115.880;2023-05-25T05:38:52;103305.91;;;19.99;40.08
72370;BME280;60343;-32.030;115.880;2023-05-25T05:41:27;103300.59;;;20.13;39.88
72370;BME280;60343;-32.030;115.880;2023-05-25T05:44:01;103298.69;;;20.22;39.25
72370;BME280;60343;-32.030;115.880;2023-05-25T05:46:42;103293.63;;;20.19;39.42
72370;BME280;60343;-32.030;115.880;2023-05-25T05:49:16;103292.69;;;19.88;40.29
72370;BME280;60343;-32.030;115.880;2023-05-25T05:51:51;103298.78;;;19.98;41.40
72370;BME280;60343;-32.030;115.880;2023-05-25T05:54:25;103295.00;;;20.15;39.87
72370;BME280;60343;-32.030;115.880;2023-05-25T05:57:00;103298.38;;;20.17;40.54
72370;BME280;60343;-32.030;115.880;2023-05-25T05:59:35;103300.94;;;20.19;39.93
72370;BME280;60343;-32.030;115.880;2023-05-25T06:02:15;103298.03;;;20.20;39.41
72370;BME280;60343;-32.030;115.880;2023-05-25T06:04:49;103293.41;;;20.29;39.07
72370;BME280;60343;-32.030;115.880;2023-05-25T06:07:24;103297.34;;;20.34;38.28
72370;BME280;60343;-32.030;115.880;2023-05-25T06:10:01;103295.63;;;20.33;38.69
72370;BME280;60343;-32.030;115.880;2023-05-25T06:12:36;103287.66;;;20.32;38.26
72370;BME280;60343;-32.030;115.880;2023-05-25T06:15:10;103306.72;;;20.32;38.58
72370;BME280;60343;-32.030;115.880;2023-05-25T06:17:51;103288.53;;;20.16;38.92
72370;BME280;60343;-32.030;115.880;2023-05-25T06:20:25;103293.44;;;20.37;38.69
72370;BME280;60343;-32.030;115.880;2023-05-25T06:23:00;103290.59;;;20.53;37.70
72370;BME280;60343;-32.030;115.880;2023-05-25T06:25:35;103289.50;;;20.39;38.72
72370;BME280;60343;-32.030;115.880;2023-05-25T06:28:10;103296.16;;;20.37;38.76
72370;BME280;60343;-32.030;115.880;2023-05-25T06:30:45;103290.03;;;20.27;38.90
72370;BME280;60343;-32.030;115.880;2023-05-25T06:33:25;103295.53;;;20.02;40.10
72370;BME280;60343;-32.030;115.880;2023-05-25T06:35:59;103289.22;;;20.10;39.95
72370;BME280;60343;-32.030;115.880;2023-05-25T06:38:34;103290.38;;;20.24;39.83
72370;BME280;60343;-32.030;115.880;2023-05-25T06:41:08;103302.72;;;20.50;37.61
72370;BME280;60343;-32.030;115.880;2023-05-25T06:43:43;103306.34;;;20.35;38.45
72370;BME280;60343;-32.030;115.880;2023-05-25T06:46:17;103299.94;;;20.11;39.24
72370;BME280;60343;-32.030;115.880;2023-05-25T06:48:58;103298.41;;;20.09;39.30
72370;BME280;60343;-32.030;115.880;2023-05-25T06:51:33;103306.94;;;19.98;39.56
72370;BME280;60343;-32.030;115.880;2023-05-25T06:54:07;103297.88;;;20.13;38.95
72370;BME280;60343;-32.030;115.880;2023-05-25T06:56:42;103302.50;;;20.05;39.01
72370;BME280;60343;-32.030;115.880;2023-05-25T06:59:17;103305.72;;;20.17;37.88
72370;BME280;60343;-32.030;115.880;2023-05-25T07:01:51;103307.25;;;20.03;38.69
72370;BME280;60343;-32.030;115.880;2023-05-25T07:04:31;103306.94;;;20.06;38.31
72370;BME280;60343;-32.030;115.880;2023-05-25T07:07:06;103310.16;;;19.93;39.41
72370;BME280;60343;-32.030;115.880;2023-05-25T07:09:41;103320.06;;;19.86;39.37
72370;BME280;60343;-32.030;115.880;2023-05-25T07:12:15;103316.50;;;19.86;39.85
72370;BME280;60343;-32.030;115.880;2023-05-25T07:14:50;103313.44;;;19.73;40.17
72370;BME280;60343;-32.030;115.880;2023-05-25T07:17:24;103318.19;;;19.79;40.53
72370;BME280;60343;-32.030;115.880;2023-05-25T07:20:05;103321.38;;;20.06;39.51
72370;BME280;60343;-32.030;115.880;2023-05-25T07:22:40;103315.94;;;19.98;39.57
72370;BME280;60343;-32.030;115.880;2023-05-25T07:25:14;103324.25;;;19.97;40.25
72370;BME280;60343;-32.030;115.880;2023-05-25T07:27:49;103313.56;;;19.95;39.78
72370;BME280;60343;-32.030;115.880;2023-05-25T07:30:24;103327.34;;;19.94;39.58
72370;BME280;60343;-32.030;115.880;2023-05-25T07:32:58;103323.97;;;19.76;39.38
72370;BME280;60343;-32.030;115.880;2023-05-25T07:35:39;103322.94;;;19.85;39.14
72370;BME280;60343;-32.030;115.880;2023-05-25T07:38:13;103318.03;;;19.64;40.18
72370;BME280;60343;-32.030;115.880;2023-05-25T07:40:48;103326.84;;;19.74;40.11
72370;BME280;60343;-32.030;115.880;2023-05-25T07:43:22;103332.47;;;19.56;39.93
72370;BME280;60343;-32.030;115.880;2023-05-25T07:45:57;103331.09;;;19.36;40.58
72370;BME280;60343;-32.030;115.880;2023-05-25T07:48:31;103331.28;;;19.51;40.04
72370;BME280;60343;-32.030;115.880;2023-05-25T07:51:12;103326.03;;;19.49;40.84
72370;BME280;60343;-32.030;115.880;2023-05-25T07:53:47;103326.19;;;19.48;40.35
72370;BME280;60343;-32.030;115.880;2023-05-25T07:56:23;103326.81;;;19.42;41.23
72370;BME280;60343;-32.030;115.880;2023-05-25T07:58:58;103331.22;;;19.26;40.45
72370;BME280;60343;-32.030;115.880;2023-05-25T08:01:33;103335.13;;;19.24;41.17
72370;BME280;60343;-32.030;115.880;2023-05-25T08:04:08;103339.34;;;19.02;41.75
72370;BME280;60343;-32.030;115.880;2023-05-25T08:06:49;103333.38;;;18.91;42.55
72370;BME280;60343;-32.030;115.880;2023-05-25T08:09:23;103342.03;;;18.94;41.99
72370;BME280;60343;-32.030;115.880;2023-05-25T08:11:58;103344.41;;;18.97;41.21
72370;BME280;60343;-32.030;115.880;2023-05-25T08:14:33;103345.25;;;18.98;41.12
72370;BME280;60343;-32.030;115.880;2023-05-25T08:17:07;103339.00;;;19.05;41.23
72370;BME280;60343;-32.030;115.880;2023-05-25T08:19:42;103355.97;;;19.07;41.13
72370;BME280;60343;-32.030;115.880;2023-05-25T08:22:22;103356.09;;;18.90;41.31
72370;BME280;60343;-32.030;115.880;2023-05-25T08:24:56;103344.91;;;18.84;41.16
72370;BME280;60343;-32.030;115.880;2023-05-25T08:27:31;103353.31;;;18.65;42.06
72370;BME280;60343;-32.030;115.880;2023-05-25T08:30:06;103356.66;;;18.59;41.73
72370;BME280;60343;-32.030;115.880;2023-05-25T08:32:41;103355.97;;;18.57;41.90
72370;BME280;60343;-32.030;115.880;2023-05-25T08:35:15;103357.34;;;18.61;41.99
72370;BME280;60343;-32.030;115.880;2023-05-25T08:37:55;103347.06;;;18.47;42.57
72370;BME280;60343;-32.030;115.880;2023-05-25T08:40:30;103349.69;;;18.31;43.41
72370;BME280;60343;-32.030;115.880;2023-05-25T08:43:05;103349.19;;;18.27;43.46
72370;BME280;60343;-32.030;115.880;2023-05-25T08:45:40;103349.88;;;18.29;43.32
72370;BME280;60343;-32.030;115.880;2023-05-25T08:48:17;103347.91;;;18.14;43.80
72370;BME280;60343;-32.030;115.880;2023-05-25T08:50:56;103348.41;;;18.09;43.60
72370;BME280;60343;-32.030;115.880;2023-05-25T08:53:38;103354.97;;;18.07;43.49
72370;BME280;60343;-32.030;115.880;2023-05-25T08:56:16;103356.31;;;18.02;43.20
72370;BME280;60343;-32.030;115.880;2023-05-25T08:58:59;103356.03;;;17.88;43.70
72370;BME280;60343;-32.030;115.880;2023-05-25T09:01:40;103363.47;;;17.86;43.44
72370;BME280;60343;-32.030;115.880;2023-05-25T09:04:17;103362.00;;;17.56;44.25
72370;BME280;60343;-32.030;115.880;2023-05-25T09:06:52;103367.97;;;17.42;45.47
72370;BME280;60343;-32.030;115.880;2023-05-25T09:09:32;103372.84;;;17.21;45.51
72370;BME280;60343;-32.030;115.880;2023-05-25T09:12:08;103377.06;;;17.05;46.21
72370;BME280;60343;-32.030;115.880;2023-05-25T09:14:44;103380.41;;;16.99;46.90
72370;BME280;60343;-32.030;115.880;2023-05-25T09:17:18;103378.63;;;16.81;46.78
72370;BME280;60343;-32.030;115.880;2023-05-25T09:19:53;103381.38;;;16.71;47.27
72370;BME280;60343;-32.030;115.880;2023-05-25T09:22:27;103380.44;;;16.62;47.24
72370;BME280;60343;-32.030;115.880;2023-05-25T09:25:09;103384.00;;;16.53;47.87
72370;BME280;60343;-32.030;115.880;2023-05-25T09:27:45;103383.91;;;16.36;48.63
72370;BME280;60343;-32.030;115.880;2023-05-25T09:30:19;103388.09;;;16.20;49.01
72370;BME280;60343;-32.030;115.880;2023-05-25T09:33:09;103390.41;;;16.06;49.46
72370;BME280;60343;-32.030;115.880;2023-05-25T09:35:44;103393.28;;;15.85;50.22
72370;BME280;60343;-32.030;115.880;2023-05-25T09:38:19;103396.84;;;15.66;50.52
72370;BME280;60343;-32.030;115.880;2023-05-25T09:40:59;103409.19;;;15.59;50.80
72370;BME280;60343;-32.030;115.880;2023-05-25T09:43:34;103415.59;;;15.49;51.59
72370;BME280;60343;-32.030;115.880;2023-05-25T09:46:08;103420.13;;;15.48;51.80
72370;BME280;60343;-32.030;115.880;2023-05-25T09:48:43;103422.09;;;15.46;51.03
72370;BME280;60343;-32.030;115.880;2023-05-25T09:51:17;103422.53;;;15.41;51.89
72370;BME280;60343;-32.030;115.880;2023-05-25T09:53:52;103425.53;;;15.48;51.33
72370;BME280;60343;-32.030;115.880;2023-05-25T09:56:33;103427.06;;;15.41;51.33
72370;BME280;60343;-32.030;115.880;2023-05-25T09:59:07;103434.03;;;15.34;51.83
72370;BME280;60343;-32.030;115.880;2023-05-25T10:01:46;103430.72;;;15.21;51.72
72370;BME280;60343;-32.030;115.880;2023-05-25T10:04:23;103433.72;;;15.27;51.44
72370;BME280;60343;-32.030;115.880;2023-05-25T10:07:03;103424.03;;;15.15;51.98
72370;BME280;60343;-32.030;115.880;2023-05-25T10:09:40;103433.66;;;14.98;53.00
72370;BME280;60343;-32.030;115.880;2023-05-25T10:12:24;103437.16;;;14.89;52.94
72370;BME280;60343;-32.030;115.880;2023-05-25T10:15:01;103436.41;;;14.78;53.40
72370;BME280;60343;-32.030;115.880;2023-05-25T10:17:42;103436.81;;;14.73;53.66
72370;BME280;60343;-32.030;115.880;2023-05-25T10:20:18;103442.03;;;14.65;54.20
72370;BME280;60343;-32.030;115.880;2023-05-25T10:22:58;103436.78;;;14.64;53.88
72370;BME280;60343;-32.030;115.880;2023-05-25T10:25:38;103446.31;;;14.68;54.11
72370;BME280;60343;-32.030;115.880;2023-05-25T10:28:24;103437.88;;;14.61;54.00
72370;BME280;60343;-32.030;115.880;2023-05-25T10:31:01;103444.13;;;14.62;54.46
72370;BME280;60343;-32.030;115.880;2023-05-25T10:33:37;103447.94;;;14.59;54.22
72370;BME280;60343;-32.030;115.880;2023-05-25T10:36:11;103451.91;;;14.55;54.06
72370;BME280;60343;-32.030;115.880;2023-05-25T10:38:46;103459.59;;;14.59;54.47
72370;BME280;60343;-32.030;115.880;2023-05-25T10:41:24;103460.25;;;14.52;54.07
72370;BME280;60343;-32.030;115.880;2023-05-25T10:44:04;103469.16;;;14.43;54.46
72370;BME280;60343;-32.030;115.880;2023-05-25T10:46:39;103473.94;;;14.39;54.82
72370;BME280;60343;-32.030;115.880;2023-05-25T10:49:26;103472.59;;;14.34;55.14
72370;BME280;60343;-32.030;115.880;2023-05-25T10:52:04;103470.84;;;14.23;55.34
72370;BME280;60343;-32.030;115.880;2023-05-25T10:54:38;103476.00;;;14.15;55.30
72370;BME280;60343;-32.030;115.880;2023-05-25T10:57:18;103481.44;;;14.04;56.30
72370;BME280;60343;-32.030;115.880;2023-05-25T11:00:02;103483.94;;;13.96;56.07
72370;BME280;60343;-32.030;115.880;2023-05-25T11:02:50;103486.94;;;13.82;57.11
72370;BME280;60343;-32.030;115.880;2023-05-25T11:05:36;103487.72;;;13.72;56.83
72370;BME280;60343;-32.030;115.880;2023-05-25T11:08:11;103487.09;;;13.69;57.53
72370;BME280;60343;-32.030;115.880;2023-05-25T11:10:53;103493.41;;;13.79;56.90
72370;BME280;60343;-32.030;115.880;2023-05-25T11:13:35;103492.31;;;13.82;56.62
72370;BME280;60343;-32.030;115.880;2023-05-25T11:16:22;103496.66;;;13.73;56.96
72370;BME280;60343;-32.030;115.880;2023-05-25T11:19:14;103506.31;;;13.64;57.30
72370;BME280;60343;-32.030;115.880;2023-05-25T11:21:48;103505.50;;;13.53;57.35
72370;BME280;60343;-32.030;115.880;2023-05-25T11:24:26;103507.94;;;13.45;58.08
72370;BME280;60343;-32.030;115.880;2023-05-25T11:27:04;103516.03;;;13.45;58.20
72370;BME280;60343;-32.030;115.880;2023-05-25T11:29:39;103510.41;;;13.48;58.18
72370;BME280;60343;-32.030;115.880;2023-05-25T11:32:19;103513.69;;;13.62;57.96
72370;BME280;60343;-32.030;115.880;2023-05-25T11:34:55;103512.53;;;13.76;56.94
72370;BME280;60343;-32.030;115.880;2023-05-25T11:37:30;103515.41;;;13.95;56.21
72370;BME280;60343;-32.030;115.880;2023-05-25T11:40:09;103511.09;;;14.25;54.52
72370;BME280;60343;-32.030;115.880;2023-05-25T11:42:46;103522.44;;;14.39;54.26
72370;BME280;60343;-32.030;115.880;2023-05-25T11:45:22;103524.78;;;14.33;54.33
72370;BME280;60343;-32.030;115.880;2023-05-25T11:48:04;103532.66;;;14.25;54.83
72370;BME280;60343;-32.030;115.880;2023-05-25T11:50:38;103536.00;;;14.17;54.91
72370;BME280;60343;-32.030;115.880;2023-05-25T11:53:13;103542.78;;;14.00;55.46
72370;BME280;60343;-32.030;115.880;2023-05-25T11:55:49;103545.19;;;13.83;55.97
72370;BME280;60343;-32.030;115.880;2023-05-25T11:58:24;103545.13;;;13.62;56.69
72370;BME280;60343;-32.030;115.880;2023-05-25T12:01:15;103546.00;;;13.51;57.40
72370;BME280;60343;-32.030;115.880;2023-05-25T12:03:55;103554.56;;;13.45;57.58
72370;BME280;60343;-32.030;115.880;2023-05-25T12:06:30;103562.50;;;13.47;57.74
72370;BME280;60343;-32.030;115.880;2023-05-25T12:09:11;103556.97;;;13.48;57.47
72370;BME280;60343;-32.030;115.880;2023-05-25T12:11:46;103561.38;;;13.49;57.69
72370;BME280;60343;-32.030;115.880;2023-05-25T12:14:21;103559.66;;;13.48;57.81
72370;BME280;60343;-32.030;115.880;2023-05-25T12:16:55;103559.44;;;13.40;57.56
72370;BME280;60343;-32.030;115.880;2023-05-25T12:19:36;103563.47;;;13.35;57.66
72370;BME280;60343;-32.030;115.880;2023-05-25T12:22:10;103562.28;;;13.27;57.75
72370;BME280;60343;-32.030;115.880;2023-05-25T12:24:45;103566.81;;;13.27;57.53
72370;BME280;60343;-32.030;115.880;2023-05-25T12:27:22;103571.69;;;13.22;57.68
72370;BME280;60343;-32.030;115.880;2023-05-25T12:29:58;103569.84;;;13.11;57.86
72370;BME280;60343;-32.030;115.880;2023-05-25T12:32:33;103569.19;;;12.97;58.39
72370;BME280;60343;-32.030;115.880;2023-05-25T12:35:13;103578.47;;;12.81;59.30
72370;BME280;60343;-32.030;115.880;2023-05-25T12:37:48;103580.28;;;12.81;59.24
72370;BME280;60343;-32.030;115.880;2023-05-25T12:40:22;103579.28;;;12.71;59.33
72370;BME280;60343;-32.030;115.880;2023-05-25T12:42:57;103586.44;;;12.59;59.64
72370;BME280;60343;-32.030;115.880;2023-05-25T12:45:32;103592.53;;;12.50;59.92
72370;BME280;60343;-32.030;115.880;2023-05-25T12:48:06;103594.09;;;12.41;60.45
72370;BME280;60343;-32.030;115.880;2023-05-25T12:51:03;103593.44;;;12.27;61.50
72370;BME280;60343;-32.030;115.880;2023-05-25T12:53:48;103601.06;;;12.20;61.34
72370;BME280;60343;-32.030;115.880;2023-05-25T12:56:24;103597.78;;;12.17;61.48
72370;BME280;60343;-32.030;115.880;2023-05-25T12:59:15;103606.66;;;12.17;61.87
72370;BME280;60343;-32.030;115.880;2023-05-25T13:01:49;103594.56;;;12.12;61.73
72370;BME280;60343;-32.030;115.880;2023-05-25T13:04:24;103606.66;;;12.17;61.89
72370;BME280;60343;-32.030;115.880;2023-05-25T13:07:06;103602.03;;;12.19;61.22